This is the latest recevied weather packets stored in our database for station/object DL7GAI-7. If no packets are shown the sender has not sent any weather packets the latest 1 day(s).
| Time | Temp. | Humidity | Pressure | Rain* | Wind** | Luminosity | Snow |
|---|---|---|---|---|---|---|---|
| 1836274440 | 13.89° C | 96% | 1023.2 hPa | 0 mm | 0.89 m/s, 0° | - | - |
| 1836274372 | 13.89° C | 96% | 1023.2 hPa | 0 mm | 0.89 m/s, 0° | - | - |
| 1778014433 | 12.22° C | 83% | 1009.4 hPa | 0 mm | 0.89 m/s, 180° | - | - |
| 1778013602 | 12.22° C | 83% | 1009.4 hPa | 0 mm | 0.89 m/s, 180° | - | - |
| 1778012781 | 12.22° C | 83% | 1009.4 hPa | 0 mm | 0.89 m/s, 180° | - | - |
| 1778011999 | 12.22° C | 83% | 1009.4 hPa | 0 mm | 0.89 m/s, 180° | - | - |
| 1778011150 | 12.78° C | 80% | 1009.4 hPa | 0 mm | 2.68 m/s, 225° | - | - |
| 1778010349 | 12.78° C | 80% | 1009.4 hPa | 0 mm | 2.68 m/s, 225° | - | - |
| 1778009595 | 13.33° C | 73% | 1009 hPa | 0 mm | 4.92 m/s, 225° | - | - |
| 1778008861 | 13.33° C | 73% | 1009 hPa | 0 mm | 4.92 m/s, 225° | - | - |
| 1778008007 | 13.33° C | 73% | 1009 hPa | 0 mm | 4.92 m/s, 225° | - | - |
| 1778007207 | 14.44° C | 67% | 1008.2 hPa | 0 mm | 7.15 m/s, 270° | - | - |
| 1778006478 | 14.44° C | 67% | 1008.2 hPa | 0 mm | 7.15 m/s, 270° | - | - |
| 1778005635 | 14.44° C | 67% | 1008.2 hPa | 0 mm | 7.15 m/s, 270° | - | - |
| 1778004790 | 14.44° C | 67% | 1008.2 hPa | 0 mm | 7.15 m/s, 270° | - | - |
| 1778003943 | 16.67° C | 65% | 1007.2 hPa | 0 mm | 2.68 m/s, 315° | - | - |
| 1778003220 | 16.67° C | 65% | 1007.2 hPa | 0 mm | 2.68 m/s, 315° | - | - |
| 1778002376 | 16.67° C | 65% | 1007.2 hPa | 0 mm | 2.68 m/s, 315° | - | - |
| 1778001595 | 16.67° C | 65% | 1007.2 hPa | 0 mm | 2.68 m/s, 315° | - | - |
| 1778000771 | 16.67° C | 65% | 1007.2 hPa | 0 mm | 2.68 m/s, 315° | - | - |
| 1777999934 | 18.33° C | 53% | 1006.8 hPa | 0 mm | 1.79 m/s, 270° | - | - |
| 1777999166 | 18.33° C | 53% | 1006.8 hPa | 0 mm | 1.79 m/s, 270° | - | - |
| 1777998330 | 18.33° C | 53% | 1006.8 hPa | 0 mm | 1.79 m/s, 270° | - | - |
| 1777997500 | 18.33° C | 53% | 1006.8 hPa | 0 mm | 1.79 m/s, 270° | - | - |
| 1777996760 | 17.78° C | 66% | 1006.7 hPa | 0 mm | 1.79 m/s, 315° | - | - |
* Rain latest hour (hover to see other rain measurements)
** Current wind speed in m/s (hover to see current wind gust speed)